Time,TemperatureF,DewpointF,PressureIn,WindDirection,WindDirectionDegrees,WindSpeedMPH,WindSpeedGustMPH,Humidity,HourlyPrecipIn,Conditions,Clouds,dailyrainin,SoftwareType,DateUTC
2013-01-20 00:04:00,56.4,54.1,30.24,ENE,75,3.0,3.0,92,0.00,,---,0.00,VWS V14.01,2013-01-20 06:04:00,
2013-01-20 00:09:00,56.3,54.0,30.24,ENE,77,1.0,3.0,92,0.00,,---,0.00,VWS V14.01,2013-01-20 06:09:00,
2013-01-20 00:14:00,56.2,54.2,30.24,ENE,71,2.0,3.0,93,0.00,,---,0.00,VWS V14.01,2013-01-20 06:14:00,
2013-01-20 00:19:00,56.3,54.3,30.24,ENE,75,2.0,3.0,93,0.00,,---,0.00,VWS V14.01,2013-01-20 06:19:00,
2013-01-20 00:24:00,56.5,54.5,30.24,ENE,70,2.0,3.0,93,0.00,,---,0.00,VWS V14.01,2013-01-20 06:24:00,
2013-01-20 00:29:00,56.6,54.6,30.24,ESE,104,3.0,3.0,93,0.00,,---,0.00,VWS V14.01,2013-01-20 06:29:00,
2013-01-20 00:34:00,56.7,54.4,30.24,East,94,2.0,3.0,92,0.00,,---,0.00,VWS V14.01,2013-01-20 06:34:00,
2013-01-20 00:39:00,56.6,54.3,30.24,East,93,2.0,4.0,92,0.00,,---,0.00,VWS V14.01,2013-01-20 06:39:00,
2013-01-20 00:44:00,56.6,54.3,30.23,East,100,1.0,4.0,92,0.00,,---,0.00,VWS V14.01,2013-01-20 06:44:00,
2013-01-20 00:49:00,56.6,54.6,30.24,ESE,112,2.0,4.0,93,0.00,,---,0.00,VWS V14.01,2013-01-20 06:49:00,
2013-01-20 00:54:00,56.7,54.7,30.24,ESE,108,1.0,4.0,93,0.00,,---,0.00,VWS V14.01,2013-01-20 06:54:00,
2013-01-20 00:59:00,56.5,54.5,30.23,East,101,1.0,4.0,93,0.00,,---,0.00,VWS V14.01,2013-01-20 06:59:00,
2013-01-20 01:04:00,56.4,54.4,30.23,East,93,1.0,3.0,93,0.00,,---,0.00,VWS V14.01,2013-01-20 07:04:00,
2013-01-20 01:09:00,56.3,54.3,30.23,ENE,77,1.0,3.0,93,0.00,,---,0.00,VWS V14.01,2013-01-20 07:09:00,
2013-01-20 01:14:00,56.2,54.2,30.23,East,89,2.0,3.0,93,0.00,,---,0.00,VWS V14.01,2013-01-20 07:14:00,
2013-01-20 01:19:00,56.1,54.1,30.23,East,91,1.0,3.0,93,0.00,,---,0.00,VWS V14.01,2013-01-20 07:19:00,
2013-01-20 01:24:00,56.1,54.4,30.23,East,91,1.0,3.0,94,0.00,,---,0.00,VWS V14.01,2013-01-20 07:24:00,
2013-01-20 01:29:00,56.1,54.4,30.22,ENE,71,2.0,3.0,94,0.00,,---,0.00,VWS V14.01,2013-01-20 07:29:00,
2013-01-20 01:34:00,56.0,54.3,30.22,ENE,68,2.0,3.0,94,0.00,,---,0.00,VWS V14.01,2013-01-20 07:34:00,
2013-01-20 01:39:00,55.9,54.2,30.22,ENE,75,1.0,3.0,94,0.00,,---,0.00,VWS V14.01,2013-01-20 07:39:00,
2013-01-20 01:44:00,55.9,54.2,30.23,East,80,1.0,3.0,94,0.00,,---,0.00,VWS V14.01,2013-01-20 07:44:00,
2013-01-20 01:49:00,55.8,54.1,30.23,ENE,69,2.0,3.0,94,0.00,,---,0.00,VWS V14.01,2013-01-20 07:49:00,
2013-01-20 01:54:00,55.9,54.2,30.23,East,79,1.0,3.0,94,0.00,,---,0.00,VWS V14.01,2013-01-20 07:54:00,
2013-01-20 01:59:00,55.9,54.2,30.23,ENE,76,2.0,3.0,94,0.00,,---,0.00,VWS V14.01,2013-01-20 07:59:00,
2013-01-20 02:04:00,55.9,54.2,30.22,East,79,1.0,2.0,94,0.00,,---,0.00,VWS V14.01,2013-01-20 08:04:00,
2013-01-20 02:09:00,55.9,54.2,30.22,ENE,76,2.0,2.0,94,0.00,,---,0.00,VWS V14.01,2013-01-20 08:09:00,
2013-01-20 02:14:00,55.8,54.1,30.23,ENE,73,1.0,2.0,94,0.00,,---,0.00,VWS V14.01,2013-01-20 08:14:00,
2013-01-20 02:19:00,55.7,54.0,30.22,ENE,73,1.0,2.0,94,0.00,,---,0.00,VWS V14.01,2013-01-20 08:19:00,
2013-01-20 02:24:00,55.7,54.0,30.22,ENE,76,2.0,2.0,94,0.00,,---,0.00,VWS V14.01,2013-01-20 08:24:00,
2013-01-20 02:29:00,55.8,54.1,30.22,ENE,72,2.0,2.0,94,0.00,,---,0.00,VWS V14.01,2013-01-20 08:29:00,
2013-01-20 02:34:00,55.8,54.1,30.22,ENE,77,2.0,2.0,94,0.00,,---,0.00,VWS V14.01,2013-01-20 08:34:00,
2013-01-20 02:39:00,55.8,54.1,30.22,ENE,72,1.0,2.0,94,0.00,,---,0.00,VWS V14.01,2013-01-20 08:39:00,
2013-01-20 02:44:00,55.8,54.1,30.22,East,80,1.0,2.0,94,0.00,,---,0.00,VWS V14.01,2013-01-20 08:44:00,
2013-01-20 03:06:00,55.8,54.1,30.22,East,84,1.0,2.0,94,0.00,,---,0.00,VWS V14.01,2013-01-20 09:06:00,
2013-01-20 03:11:00,55.7,54.0,30.22,ENE,73,2.0,2.0,94,0.00,,---,0.00,VWS V14.01,2013-01-20 09:11:00,
2013-01-20 03:16:00,55.6,53.9,30.22,ENE,68,2.0,2.0,94,0.00,,---,0.00,VWS V14.01,2013-01-20 09:16:00,
2013-01-20 03:21:00,55.4,53.7,30.21,ENE,68,1.0,2.0,94,0.00,,---,0.00,VWS V14.01,2013-01-20 09:21:00,
2013-01-20 03:26:00,55.3,53.6,30.21,ENE,68,1.0,2.0,94,0.00,,---,0.00,VWS V14.01,2013-01-20 09:26:00,
2013-01-20 03:31:00,55.3,53.6,30.21,ENE,67,1.0,2.0,94,0.00,,---,0.00,VWS V14.01,2013-01-20 09:31:00,
2013-01-20 03:36:00,55.0,53.3,30.21,ENE,60,3.0,3.0,94,0.00,,---,0.00,VWS V14.01,2013-01-20 09:36:00,
2013-01-20 03:41:00,54.9,53.2,30.21,ENE,66,1.0,3.0,94,0.00,,---,0.00,VWS V14.01,2013-01-20 09:41:00,
2013-01-20 03:46:00,54.9,53.2,30.21,ENE,67,1.0,3.0,94,0.00,,---,0.00,VWS V14.01,2013-01-20 09:46:00,
2013-01-20 03:52:00,55.1,53.4,30.21,ENE,69,1.0,3.0,94,0.00,,---,0.00,VWS V14.01,2013-01-20 09:52:00,
2013-01-20 03:57:00,55.1,53.4,30.21,ENE,73,1.0,3.0,94,0.00,,---,0.00,VWS V14.01,2013-01-20 09:57:00,
2013-01-20 04:02:00,55.1,53.1,30.21,ENE,65,1.0,3.0,93,0.00,,---,0.00,VWS V14.01,2013-01-20 10:02:00,
2013-01-20 04:07:00,55.0,53.0,30.21,NE,56,2.0,2.0,93,0.00,,---,0.00,VWS V14.01,2013-01-20 10:07:00,
2013-01-20 04:12:00,54.9,52.9,30.21,ENE,58,1.0,2.0,93,0.00,,---,0.00,VWS V14.01,2013-01-20 10:12:00,
2013-01-20 04:17:00,54.9,53.2,30.21,ENE,58,1.0,2.0,94,0.00,,---,0.00,VWS V14.01,2013-01-20 10:17:00,
2013-01-20 04:22:00,54.8,52.8,30.21,ENE,60,1.0,2.0,93,0.00,,---,0.00,VWS V14.01,2013-01-20 10:22:00,
2013-01-20 04:27:00,54.7,53.0,30.20,ENE,64,2.0,2.0,94,0.00,,---,0.00,VWS V14.01,2013-01-20 10:27:00,
2013-01-20 04:32:00,54.7,53.0,30.20,East,92,2.0,3.0,94,0.00,,---,0.00,VWS V14.01,2013-01-20 10:32:00,
2013-01-20 04:37:00,55.1,53.4,30.20,ENE,74,3.0,3.0,94,0.00,,---,0.00,VWS V14.01,2013-01-20 10:37:00,
2013-01-20 04:42:00,55.4,53.7,30.21,East,100,1.0,4.0,94,0.00,,---,0.00,VWS V14.01,2013-01-20 10:42:00,
2013-01-20 04:47:00,55.4,53.7,30.21,East,85,2.0,4.0,94,0.00,,---,0.00,VWS V14.01,2013-01-20 10:47:00,
2013-01-20 04:52:00,55.3,53.6,30.20,ENE,65,2.0,4.0,94,0.00,,---,0.00,VWS V14.01,2013-01-20 10:52:00,
2013-01-20 04:57:00,55.1,53.4,30.20,ENE,68,3.0,4.0,94,0.00,,---,0.00,VWS V14.01,2013-01-20 10:57:00,
2013-01-20 05:02:00,55.0,53.3,30.20,ENE,72,2.0,4.0,94,0.00,,---,0.00,VWS V14.01,2013-01-20 11:02:00,
2013-01-20 05:07:00,55.0,53.3,30.20,ENE,71,2.0,4.0,94,0.00,,---,0.00,VWS V14.01,2013-01-20 11:07:00,
2013-01-20 05:12:00,55.0,53.6,30.20,East,79,3.0,4.0,95,0.00,,---,0.00,VWS V14.01,2013-01-20 11:12:00,
2013-01-20 05:17:00,55.2,53.8,30.21,East,82,1.0,4.0,95,0.00,,---,0.00,VWS V14.01,2013-01-20 11:17:00,
2013-01-20 05:22:00,55.3,53.9,30.21,East,80,0.0,4.0,95,0.00,,---,0.00,VWS V14.01,2013-01-20 11:22:00,
2013-01-20 05:27:00,55.4,54.0,30.21,ENE,72,2.0,4.0,95,0.00,,---,0.00,VWS V14.01,2013-01-20 11:27:00,
2013-01-20 05:32:00,55.4,54.0,30.21,ENE,72,3.0,4.0,95,0.00,,---,0.00,VWS V14.01,2013-01-20 11:32:00,
2013-01-20 05:37:00,55.4,53.7,30.21,East,82,4.0,4.0,94,0.00,,---,0.00,VWS V14.01,2013-01-20 11:37:00,
2013-01-20 05:42:00,55.4,54.0,30.21,ESE,116,2.0,4.0,95,0.00,,---,0.00,VWS V14.01,2013-01-20 11:42:00,
2013-01-20 05:47:00,55.4,54.0,30.21,East,82,2.0,4.0,95,0.00,,---,0.00,VWS V14.01,2013-01-20 11:47:00,
2013-01-20 05:52:00,55.3,53.6,30.21,East,82,1.0,4.0,94,0.00,,---,0.00,VWS V14.01,2013-01-20 11:52:00,
2013-01-20 05:57:00,55.2,53.8,30.21,East,95,2.0,4.0,95,0.00,,---,0.00,VWS V14.01,2013-01-20 11:57:00,
2013-01-20 06:02:00,55.2,53.8,30.21,East,79,2.0,4.0,95,0.00,,---,0.00,VWS V14.01,2013-01-20 12:02:00,
2013-01-20 06:07:00,55.1,53.7,30.20,ESE,108,2.0,3.0,95,0.00,,---,0.00,VWS V14.01,2013-01-20 12:07:00,
2013-01-20 06:12:00,55.2,53.8,30.21,East,92,2.0,3.0,95,0.00,,---,0.00,VWS V14.01,2013-01-20 12:12:00,
2013-01-20 06:17:00,55.3,53.9,30.21,East,84,1.0,4.0,95,0.00,,---,0.00,VWS V14.01,2013-01-20 12:17:00,
2013-01-20 06:22:00,55.3,53.9,30.21,ENE,69,2.0,4.0,95,0.00,,---,0.00,VWS V14.01,2013-01-20 12:22:00,
2013-01-20 06:27:00,55.3,53.9,30.21,East,83,1.0,4.0,95,0.00,,---,0.00,VWS V14.01,2013-01-20 12:27:00,
2013-01-20 06:32:00,55.3,53.9,30.22,East,94,2.0,4.0,95,0.00,,---,0.00,VWS V14.01,2013-01-20 12:32:00,
2013-01-20 06:37:00,55.2,53.8,30.22,East,89,2.0,4.0,95,0.00,,---,0.00,VWS V14.01,2013-01-20 12:37:00,
2013-01-20 06:42:00,55.1,53.4,30.22,ENE,69,2.0,4.0,94,0.00,,---,0.00,VWS V14.01,2013-01-20 12:42:00,
2013-01-20 06:47:00,55.1,53.4,30.22,East,80,2.0,4.0,94,0.00,,---,0.00,VWS V14.01,2013-01-20 12:47:00,
2013-01-20 06:52:00,55.0,53.3,30.22,ENE,78,2.0,4.0,94,0.00,,---,0.00,VWS V14.01,2013-01-20 12:52:00,
2013-01-20 06:57:00,55.0,53.0,30.22,East,86,1.0,4.0,93,0.00,,---,0.00,VWS V14.01,2013-01-20 12:57:00,
2013-01-20 07:02:00,55.0,53.0,30.22,ENE,76,2.0,4.0,93,0.00,,---,0.00,VWS V14.01,2013-01-20 13:02:00,
2013-01-20 07:07:00,55.0,53.0,30.22,ENE,76,2.0,4.0,93,0.00,,---,0.00,VWS V14.01,2013-01-20 13:07:00,
2013-01-20 07:12:00,55.0,52.7,30.22,ENE,65,3.0,4.0,92,0.00,,---,0.00,VWS V14.01,2013-01-20 13:12:00,
2013-01-20 07:17:00,55.0,52.7,30.22,East,79,2.0,4.0,92,0.00,,---,0.00,VWS V14.01,2013-01-20 13:17:00,
2013-01-20 07:22:00,55.0,52.7,30.23,ENE,68,2.0,4.0,92,0.00,,---,0.00,VWS V14.01,2013-01-20 13:22:00,
2013-01-20 07:27:00,55.1,52.8,30.23,East,84,2.0,4.0,92,0.00,,---,0.00,VWS V14.01,2013-01-20 13:27:00,
2013-01-20 07:32:00,55.2,52.6,30.23,ENE,74,1.0,4.0,91,0.00,,---,0.00,VWS V14.01,2013-01-20 13:32:00,
2013-01-20 07:37:00,55.4,52.5,30.23,East,92,2.0,4.0,90,0.00,,---,0.00,VWS V14.01,2013-01-20 13:37:00,
2013-01-20 07:42:00,55.4,52.5,30.23,East,86,2.0,4.0,90,0.00,,---,0.00,VWS V14.01,2013-01-20 13:42:00,
2013-01-20 07:47:00,55.4,52.5,30.23,East,82,2.0,4.0,90,0.00,,---,0.00,VWS V14.01,2013-01-20 13:47:00,
2013-01-20 07:52:00,55.6,52.7,30.23,ENE,74,2.0,4.0,90,0.00,,---,0.00,VWS V14.01,2013-01-20 13:52:00,
2013-01-20 07:57:00,55.8,52.9,30.24,ENE,75,1.0,4.0,90,0.00,,---,0.00,VWS V14.01,2013-01-20 13:57:00,
2013-01-20 08:02:00,56.1,53.2,30.24,East,91,2.0,4.0,90,0.00,,---,0.00,VWS V14.01,2013-01-20 14:02:00,
2013-01-20 08:07:00,56.4,53.5,30.24,East,91,0.0,4.0,90,0.00,,---,0.00,VWS V14.01,2013-01-20 14:07:00,
2013-01-20 08:12:00,56.8,53.6,30.25,East,79,2.0,4.0,89,0.00,,---,0.00,VWS V14.01,2013-01-20 14:12:00,
2013-01-20 08:17:00,57.2,54.0,30.25,ENE,73,2.0,5.0,89,0.00,,---,0.00,VWS V14.01,2013-01-20 14:17:00,
2013-01-20 08:22:00,57.8,54.3,30.25,ENE,64,2.0,5.0,88,0.00,,---,0.00,VWS V14.01,2013-01-20 14:22:00,
2013-01-20 08:27:00,58.3,54.5,30.25,East,93,3.0,5.0,87,0.00,,---,0.00,VWS V14.01,2013-01-20 14:27:00,
2013-01-20 08:32:00,58.7,54.5,30.25,East,89,1.0,6.0,86,0.00,,---,0.00,VWS V14.01,2013-01-20 14:32:00,
2013-01-20 08:37:00,59.2,55.0,30.25,ESE,112,3.0,6.0,86,0.00,,---,0.00,VWS V14.01,2013-01-20 14:37:00,
2013-01-20 08:42:00,59.6,55.4,30.26,ENE,60,1.0,6.0,86,0.00,,---,0.00,VWS V14.01,2013-01-20 14:42:00,
2013-01-20 08:47:00,60.1,55.9,30.26,ENE,62,1.0,6.0,86,0.00,,---,0.00,VWS V14.01,2013-01-20 14:47:00,
2013-01-20 08:52:00,60.4,56.2,30.26,East,81,3.0,6.0,86,0.00,,---,0.00,VWS V14.01,2013-01-20 14:52:00,
2013-01-20 08:57:00,60.7,56.5,30.26,East,96,2.0,6.0,86,0.00,,---,0.00,VWS V14.01,2013-01-20 14:57:00,
2013-01-20 09:02:00,61.0,56.5,30.26,ENE,64,2.0,6.0,85,0.00,,---,0.00,VWS V14.01,2013-01-20 15:02:00,
2013-01-20 09:07:00,61.1,56.6,30.26,ENE,63,4.0,6.0,85,0.00,,---,0.00,VWS V14.01,2013-01-20 15:07:00,
2013-01-20 09:12:00,60.9,56.7,30.26,ENE,61,1.0,6.0,86,0.00,,---,0.00,VWS V14.01,2013-01-20 15:12:00,
2013-01-20 09:17:00,61.2,57.0,30.26,East,79,2.0,6.0,86,0.00,,---,0.00,VWS V14.01,2013-01-20 15:17:00,
2013-01-20 09:22:00,61.5,57.3,30.26,East,92,3.0,6.0,86,0.00,,---,0.00,VWS V14.01,2013-01-20 15:22:00,
2013-01-20 09:27:00,61.8,57.6,30.26,East,85,1.0,6.0,86,0.00,,---,0.00,VWS V14.01,2013-01-20 15:27:00,
2013-01-20 09:32:00,62.1,57.9,30.26,East,85,2.0,6.0,86,0.00,,---,0.00,VWS V14.01,2013-01-20 15:32:00,
2013-01-20 09:37:00,62.3,57.7,30.26,East,88,3.0,6.0,85,0.00,,---,0.00,VWS V14.01,2013-01-20 15:37:00,
2013-01-20 09:42:00,62.7,58.1,30.26,East,93,3.0,6.0,85,0.00,,---,0.00,VWS V14.01,2013-01-20 15:42:00,
2013-01-20 09:47:00,62.9,58.0,30.26,East,81,1.0,6.0,84,0.00,,---,0.00,VWS V14.01,2013-01-20 15:47:00,
2013-01-20 09:52:00,63.2,58.3,30.27,ENE,71,2.0,6.0,84,0.00,,---,0.00,VWS V14.01,2013-01-20 15:52:00,
2013-01-20 09:57:00,63.4,58.5,30.26,ESE,110,3.0,6.0,84,0.00,,---,0.00,VWS V14.01,2013-01-20 15:57:00,
2013-01-20 10:02:00,63.7,58.5,30.27,ESE,103,3.0,6.0,83,0.00,,---,0.00,VWS V14.01,2013-01-20 16:02:00,
2013-01-20 10:07:00,63.8,58.2,30.27,ESE,109,3.0,6.0,82,0.00,,---,0.00,VWS V14.01,2013-01-20 16:07:00,
2013-01-20 10:12:00,64.0,58.7,30.26,ESE,105,3.0,6.0,83,0.00,,---,0.00,VWS V14.01,2013-01-20 16:12:00,
2013-01-20 10:17:00,64.1,58.5,30.26,East,87,3.0,6.0,82,0.00,,---,0.00,VWS V14.01,2013-01-20 16:17:00,
2013-01-20 10:22:00,64.1,58.5,30.27,ESE,109,2.0,6.0,82,0.00,,---,0.00,VWS V14.01,2013-01-20 16:22:00,
2013-01-20 10:27:00,64.3,58.3,30.27,East,79,4.0,6.0,81,0.00,,---,0.00,VWS V14.01,2013-01-20 16:27:00,
2013-01-20 10:32:00,64.2,58.3,30.26,East,81,5.0,6.0,81,0.00,,---,0.00,VWS V14.01,2013-01-20 16:32:00,
2013-01-20 10:37:00,64.4,58.5,30.27,East,89,4.0,7.0,81,0.00,,---,0.00,VWS V14.01,2013-01-20 16:37:00,
2013-01-20 10:42:00,64.5,58.2,30.27,SE,132,4.0,7.0,80,0.00,,---,0.00,VWS V14.01,2013-01-20 16:42:00,
2013-01-20 10:47:00,64.3,58.3,30.26,East,98,2.0,7.0,81,0.00,,---,0.00,VWS V14.01,2013-01-20 16:47:00,
2013-01-20 10:52:00,64.3,58.3,30.26,ENE,78,4.0,7.0,81,0.00,,---,0.00,VWS V14.01,2013-01-20 16:52:00,
2013-01-20 10:57:00,64.2,57.9,30.26,East,101,5.0,7.0,80,0.00,,---,0.00,VWS V14.01,2013-01-20 16:57:00,
2013-01-20 11:02:00,64.3,58.3,30.26,ESE,115,5.0,7.0,81,0.00,,---,0.00,VWS V14.01,2013-01-20 17:02:00,
2013-01-20 11:07:00,64.3,58.3,30.26,ESE,122,5.0,7.0,81,0.00,,---,0.00,VWS V14.01,2013-01-20 17:07:00,
2013-01-20 11:12:00,64.6,58.7,30.26,ENE,72,5.0,8.0,81,0.00,,---,0.00,VWS V14.01,2013-01-20 17:12:00,
2013-01-20 11:17:00,64.9,58.9,30.26,East,92,5.0,8.0,81,0.00,,---,0.00,VWS V14.01,2013-01-20 17:17:00,
2013-01-20 11:22:00,65.1,58.8,30.26,East,88,6.0,8.0,80,0.00,,---,0.00,VWS V14.01,2013-01-20 17:22:00,
2013-01-20 11:27:00,65.2,59.2,30.26,ESE,109,3.0,8.0,81,0.00,,---,0.00,VWS V14.01,2013-01-20 17:27:00,
2013-01-20 11:32:00,65.4,58.7,30.25,SSE,147,3.0,8.0,79,0.00,,---,0.00,VWS V14.01,2013-01-20 17:32:00,
2013-01-20 11:37:00,65.5,58.8,30.25,SE,127,5.0,8.0,79,0.00,,---,0.00,VWS V14.01,2013-01-20 17:37:00,
2013-01-20 11:42:00,65.8,58.8,30.25,ESE,111,6.0,8.0,78,0.00,,---,0.00,VWS V14.01,2013-01-20 17:42:00,
2013-01-20 11:47:00,65.8,58.8,30.25,SE,129,4.0,8.0,78,0.00,,---,0.00,VWS V14.01,2013-01-20 17:47:00,
2013-01-20 11:52:00,66.0,59.0,30.24,East,89,2.0,8.0,78,0.00,,---,0.00,VWS V14.01,2013-01-20 17:52:00,
2013-01-20 11:57:00,66.5,58.7,30.24,ESE,107,5.0,8.0,76,0.00,,---,0.00,VWS V14.01,2013-01-20 17:57:00,
2013-01-20 12:02:00,66.2,58.8,30.24,ENE,74,3.0,9.0,77,0.00,,---,0.00,VWS V14.01,2013-01-20 18:02:00,
2013-01-20 12:07:00,66.7,59.6,30.23,East,98,6.0,8.0,78,0.00,,---,0.00,VWS V14.01,2013-01-20 18:07:00,
2013-01-20 12:12:00,66.2,58.8,30.23,SE,130,5.0,8.0,77,0.00,,---,0.00,VWS V14.01,2013-01-20 18:12:00,
2013-01-20 12:17:00,66.6,59.2,30.22,ESE,106,5.0,8.0,77,0.00,,---,0.00,VWS V14.01,2013-01-20 18:17:00,
2013-01-20 12:22:00,66.7,59.3,30.22,ESE,103,6.0,8.0,77,0.00,,---,0.00,VWS V14.01,2013-01-20 18:22:00,
2013-01-20 12:27:00,66.7,58.5,30.22,SE,129,3.0,8.0,75,0.00,,---,0.00,VWS V14.01,2013-01-20 18:27:00,
2013-01-20 12:32:00,66.8,58.3,30.21,SSE,147,3.0,8.0,74,0.00,,---,0.00,VWS V14.01,2013-01-20 18:32:00,
2013-01-20 12:37:00,66.5,58.0,30.21,ESE,122,5.0,8.0,74,0.00,,---,0.00,VWS V14.01,2013-01-20 18:37:00,
2013-01-20 12:42:00,66.6,58.4,30.21,East,101,4.0,8.0,75,0.00,,---,0.00,VWS V14.01,2013-01-20 18:42:00,
2013-01-20 12:47:00,66.7,57.4,30.20,East,98,2.0,8.0,72,0.00,,---,0.00,VWS V14.01,2013-01-20 18:47:00,
2013-01-20 12:52:00,66.8,57.5,30.20,ESE,106,5.0,8.0,72,0.00,,---,0.00,VWS V14.01,2013-01-20 18:52:00,
2013-01-20 12:57:00,67.0,58.5,30.19,SSE,153,4.0,8.0,74,0.00,,---,0.00,VWS V14.01,2013-01-20 18:57:00,
2013-01-20 13:02:00,66.9,57.6,30.19,ESE,103,3.0,8.0,72,0.00,,---,0.00,VWS V14.01,2013-01-20 19:02:00,
2013-01-20 13:06:00,66.4,57.5,30.18,ESE,108,3.0,7.0,73,0.00,,---,0.00,VWS V14.01,2013-01-20 19:06:00,
2013-01-20 13:11:00,66.5,57.6,30.18,East,93,2.0,7.0,73,0.00,,---,0.00,VWS V14.01,2013-01-20 19:11:00,
2013-01-20 13:16:00,66.8,57.1,30.18,ESE,109,5.0,7.0,71,0.00,,---,0.00,VWS V14.01,2013-01-20 19:16:00,
2013-01-20 13:21:00,66.8,57.9,30.18,East,90,4.0,7.0,73,0.00,,---,0.00,VWS V14.01,2013-01-20 19:21:00,
2013-01-20 13:27:00,66.6,58.1,30.17,ESE,115,6.0,8.0,74,0.00,,---,0.00,VWS V14.01,2013-01-20 19:27:00,
2013-01-20 13:32:00,66.8,57.5,30.17,East,96,2.0,8.0,72,0.00,,---,0.00,VWS V14.01,2013-01-20 19:32:00,
2013-01-20 13:37:00,66.9,57.6,30.17,East,92,4.0,8.0,72,0.00,,---,0.00,VWS V14.01,2013-01-20 19:37:00,
2013-01-20 13:42:00,66.9,57.6,30.17,East,88,3.0,8.0,72,0.00,,---,0.00,VWS V14.01,2013-01-20 19:42:00,
2013-01-20 13:47:00,67.3,57.6,30.17,ESE,115,3.0,8.0,71,0.00,,---,0.00,VWS V14.01,2013-01-20 19:47:00,
2013-01-20 13:52:00,67.2,58.3,30.17,SE,134,4.0,9.0,73,0.00,,---,0.00,VWS V14.01,2013-01-20 19:52:00,
2013-01-20 13:57:00,66.4,57.1,30.17,East,94,4.0,9.0,72,0.00,,---,0.00,VWS V14.01,2013-01-20 19:57:00,
2013-01-20 14:02:00,66.6,56.9,30.16,ESE,118,2.0,9.0,71,0.00,,---,0.00,VWS V14.01,2013-01-20 20:02:00,
2013-01-20 14:07:00,66.9,57.6,30.16,ESE,109,6.0,7.0,72,0.00,,---,0.00,VWS V14.01,2013-01-20 20:07:00,
2013-01-20 14:11:00,66.8,57.5,30.16,ESE,105,7.0,8.0,72,0.00,,---,0.00,VWS V14.01,2013-01-20 20:11:00,
2013-01-20 14:17:00,67.3,57.2,30.16,ESE,103,6.0,8.0,70,0.00,,---,0.00,VWS V14.01,2013-01-20 20:17:00,
2013-01-20 14:22:00,67.1,57.8,30.15,ESE,115,7.0,9.0,72,0.00,,---,0.00,VWS V14.01,2013-01-20 20:22:00,
2013-01-20 14:27:00,67.5,57.8,30.15,ESE,117,5.0,9.0,71,0.00,,---,0.00,VWS V14.01,2013-01-20 20:27:00,
2013-01-20 14:32:00,67.0,57.7,30.15,ESE,109,4.0,9.0,72,0.00,,---,0.00,VWS V14.01,2013-01-20 20:32:00,
2013-01-20 14:37:00,67.0,57.7,30.15,East,96,4.0,9.0,72,0.00,,---,0.00,VWS V14.01,2013-01-20 20:37:00,
2013-01-20 14:42:00,67.0,57.7,30.15,East,84,5.0,9.0,72,0.00,,---,0.00,VWS V14.01,2013-01-20 20:42:00,
2013-01-20 14:47:00,66.9,57.6,30.14,ESE,109,9.0,9.0,72,0.00,,---,0.00,VWS V14.01,2013-01-20 20:47:00,
2013-01-20 14:52:00,66.8,57.1,30.14,SE,139,1.0,9.0,71,0.00,,---,0.00,VWS V14.01,2013-01-20 20:52:00,
2013-01-20 14:57:00,66.6,57.3,30.14,ESE,105,5.0,9.0,72,0.00,,---,0.00,VWS V14.01,2013-01-20 20:57:00,
2013-01-20 15:02:00,66.6,56.9,30.14,ESE,111,7.0,9.0,71,0.00,,---,0.00,VWS V14.01,2013-01-20 21:02:00,
2013-01-20 15:07:00,66.3,57.4,30.14,ESE,116,3.0,9.0,73,0.00,,---,0.00,VWS V14.01,2013-01-20 21:07:00,
2013-01-20 15:12:00,66.3,56.6,30.14,East,96,5.0,9.0,71,0.00,,---,0.00,VWS V14.01,2013-01-20 21:12:00,
2013-01-20 15:17:00,66.4,57.5,30.14,ESE,107,5.0,9.0,73,0.00,,---,0.00,VWS V14.01,2013-01-20 21:17:00,
2013-01-20 15:22:00,66.2,57.7,30.14,ESE,118,9.0,10.0,74,0.00,,---,0.00,VWS V14.01,2013-01-20 21:22:00,
2013-01-20 15:27:00,65.7,57.6,30.14,ESE,108,5.0,10.0,75,0.00,,---,0.00,VWS V14.01,2013-01-20 21:27:00,
2013-01-20 15:32:00,65.6,57.5,30.14,ESE,103,7.0,10.0,75,0.00,,---,0.00,VWS V14.01,2013-01-20 21:32:00,
2013-01-20 15:37:00,65.6,57.5,30.14,ESE,106,4.0,10.0,75,0.00,,---,0.00,VWS V14.01,2013-01-20 21:37:00,
2013-01-20 15:42:00,65.6,57.5,30.14,East,94,7.0,10.0,75,0.00,,---,0.00,VWS V14.01,2013-01-20 21:42:00,
2013-01-20 15:47:00,65.4,57.3,30.14,SE,125,7.0,10.0,75,0.00,,---,0.00,VWS V14.01,2013-01-20 21:47:00,
2013-01-20 15:52:00,65.3,57.2,30.14,East,98,7.0,10.0,75,0.00,,---,0.00,VWS V14.01,2013-01-20 21:52:00,
2013-01-20 15:57:00,65.2,57.1,30.14,ESE,120,8.0,10.0,75,0.00,,---,0.00,VWS V14.01,2013-01-20 21:57:00,
2013-01-20 16:02:00,64.8,57.1,30.14,ESE,119,3.0,6.0,76,0.00,,---,0.00,VWS V14.01,2013-01-20 22:02:00,
2013-01-20 16:07:00,64.5,56.8,30.14,ESE,117,6.0,7.0,76,0.00,,---,0.00,VWS V14.01,2013-01-20 22:07:00,
2013-01-20 16:12:00,64.4,57.0,30.14,SE,127,4.0,8.0,77,0.00,,---,0.00,VWS V14.01,2013-01-20 22:12:00,
2013-01-20 16:17:00,64.6,57.6,30.14,East,98,8.0,8.0,78,0.00,,---,0.00,VWS V14.01,2013-01-20 22:17:00,
2013-01-20 16:22:00,64.4,57.4,30.14,ESE,105,7.0,10.0,78,0.00,,---,0.00,VWS V14.01,2013-01-20 22:22:00,
2013-01-20 16:27:00,64.1,57.1,30.14,ESE,105,7.0,10.0,78,0.00,,---,0.00,VWS V14.01,2013-01-20 22:27:00,
2013-01-20 16:32:00,64.1,57.5,30.14,ESE,116,7.0,10.0,79,0.00,,---,0.00,VWS V14.01,2013-01-20 22:32:00,
2013-01-20 16:38:00,63.9,56.9,30.14,ESE,102,7.0,10.0,78,0.00,,---,0.00,VWS V14.01,2013-01-20 22:38:00,
2013-01-20 16:42:00,64.0,57.0,30.14,ESE,103,4.0,10.0,78,0.00,,---,0.00,VWS V14.01,2013-01-20 22:42:00,
2013-01-20 16:47:00,64.1,57.1,30.14,ESE,118,5.0,10.0,78,0.00,,---,0.00,VWS V14.01,2013-01-20 22:47:00,
2013-01-20 16:52:00,63.9,57.3,30.14,ENE,74,3.0,10.0,79,0.00,,---,0.00,VWS V14.01,2013-01-20 22:52:00,
2013-01-20 16:57:00,63.4,57.1,30.13,SE,124,3.0,10.0,80,0.00,,---,0.00,VWS V14.01,2013-01-20 22:57:00,
2013-01-20 17:02:00,62.8,56.9,30.14,East,97,6.0,7.0,81,0.00,,---,0.00,VWS V14.01,2013-01-20 23:02:00,
2013-01-20 17:07:00,62.3,56.7,30.14,ESE,111,8.0,8.0,82,0.00,,---,0.00,VWS V14.01,2013-01-20 23:07:00,
2013-01-20 17:12:00,62.0,56.8,30.13,ESE,119,2.0,9.0,83,0.00,,---,0.00,VWS V14.01,2013-01-20 23:12:00,
2013-01-20 17:17:00,62.0,56.8,30.13,ESE,115,2.0,9.0,83,0.00,,---,0.00,VWS V14.01,2013-01-20 23:17:00,
2013-01-20 17:22:00,62.0,56.8,30.13,ESE,110,5.0,9.0,83,0.00,,---,0.00,VWS V14.01,2013-01-20 23:22:00,
2013-01-20 17:27:00,62.0,56.8,30.13,ESE,111,4.0,9.0,83,0.00,,---,0.00,VWS V14.01,2013-01-20 23:27:00,
2013-01-20 17:32:00,62.0,56.8,30.13,ESE,120,4.0,9.0,83,0.00,,---,0.00,VWS V14.01,2013-01-20 23:32:00,
2013-01-20 17:37:00,61.7,56.5,30.13,ESE,120,5.0,10.0,83,0.00,,---,0.00,VWS V14.01,2013-01-20 23:37:00,
2013-01-20 17:42:00,61.4,56.5,30.13,ESE,105,6.0,10.0,84,0.00,,---,0.00,VWS V14.01,2013-01-20 23:42:00,
2013-01-20 17:47:00,61.2,56.3,30.13,ESE,113,5.0,10.0,84,0.00,,---,0.00,VWS V14.01,2013-01-20 23:47:00,
2013-01-20 17:52:00,61.0,56.1,30.13,ESE,117,8.0,10.0,84,0.00,,---,0.00,VWS V14.01,2013-01-20 23:52:00,
2013-01-20 17:57:00,60.9,56.0,30.13,SE,133,5.0,10.0,84,0.00,,---,0.00,VWS V14.01,2013-01-20 23:57:00,
2013-01-20 18:02:00,60.8,56.3,30.13,ESE,108,6.0,6.0,85,0.00,,---,0.00,VWS V14.01,2013-01-21 00:02:00,
2013-01-20 18:07:00,60.6,56.1,30.13,SE,128,5.0,8.0,85,0.00,,---,0.00,VWS V14.01,2013-01-21 00:07:00,
2013-01-20 18:12:00,60.5,56.0,30.14,ESE,111,6.0,8.0,85,0.00,,---,0.00,VWS V14.01,2013-01-21 00:12:00,
2013-01-20 18:17:00,60.5,56.0,30.14,ESE,116,4.0,8.0,85,0.00,,---,0.00,VWS V14.01,2013-01-21 00:17:00,
2013-01-20 18:23:00,60.5,56.3,30.14,SE,128,3.0,8.0,86,0.00,,---,0.00,VWS V14.01,2013-01-21 00:23:00,
2013-01-20 18:28:00,60.4,56.2,30.14,East,84,6.0,8.0,86,0.00,,---,0.00,VWS V14.01,2013-01-21 00:28:00,
2013-01-20 18:33:00,60.3,56.4,30.14,ESE,117,4.0,8.0,87,0.00,,---,0.00,VWS V14.01,2013-01-21 00:33:00,
2013-01-20 18:38:00,60.3,56.4,30.14,ESE,114,5.0,8.0,87,0.00,,---,0.00,VWS V14.01,2013-01-21 00:38:00,
2013-01-20 18:44:00,60.2,56.3,30.14,ESE,108,2.0,8.0,87,0.00,,---,0.00,VWS V14.01,2013-01-21 00:44:00,
2013-01-20 18:48:00,60.2,56.3,30.14,ESE,110,5.0,8.0,87,0.00,,---,0.00,VWS V14.01,2013-01-21 00:48:00,
2013-01-20 18:53:00,60.1,56.2,30.14,ESE,117,3.0,8.0,87,0.00,,---,0.00,VWS V14.01,2013-01-21 00:53:00,
2013-01-20 18:58:00,60.0,56.1,30.15,ESE,112,2.0,8.0,87,0.00,,---,0.00,VWS V14.01,2013-01-21 00:58:00,
2013-01-20 19:03:00,59.9,56.3,30.15,ESE,109,2.0,4.0,88,0.00,,---,0.00,VWS V14.01,2013-01-21 01:03:00,
2013-01-20 19:08:00,59.7,56.2,30.15,ESE,119,2.0,4.0,88,0.00,,---,0.00,VWS V14.01,2013-01-21 01:08:00,
2013-01-20 19:13:00,59.6,56.0,30.15,East,98,1.0,4.0,88,0.00,,---,0.00,VWS V14.01,2013-01-21 01:13:00,
2013-01-20 19:18:00,59.5,56.3,30.15,ESE,108,3.0,4.0,89,0.00,,---,0.00,VWS V14.01,2013-01-21 01:18:00,
2013-01-20 19:23:00,59.4,56.2,30.15,East,101,3.0,5.0,89,0.00,,---,0.00,VWS V14.01,2013-01-21 01:23:00,
2013-01-20 19:28:00,59.4,56.5,30.15,ESE,119,3.0,5.0,90,0.00,,---,0.00,VWS V14.01,2013-01-21 01:28:00,
2013-01-20 19:33:00,59.3,56.4,30.15,SE,134,2.0,5.0,90,0.00,,---,0.00,VWS V14.01,2013-01-21 01:33:00,
2013-01-20 19:38:00,59.1,56.2,30.16,ESE,123,3.0,5.0,90,0.00,,---,0.00,VWS V14.01,2013-01-21 01:38:00,
2013-01-20 19:43:00,59.1,56.5,30.15,ESE,118,3.0,5.0,91,0.00,,---,0.00,VWS V14.01,2013-01-21 01:43:00,
2013-01-20 19:48:00,59.0,56.4,30.16,ESE,118,3.0,5.0,91,0.00,,---,0.00,VWS V14.01,2013-01-21 01:48:00,
2013-01-20 19:53:00,59.0,56.7,30.16,ESE,110,2.0,5.0,92,0.00,,---,0.00,VWS V14.01,2013-01-21 01:53:00,
2013-01-20 19:58:00,59.1,56.5,30.15,ESE,108,3.0,5.0,91,0.00,,---,0.00,VWS V14.01,2013-01-21 01:58:00,
2013-01-20 20:03:00,59.1,56.5,30.15,ESE,108,4.0,5.0,91,0.00,,---,0.00,VWS V14.01,2013-01-21 02:03:00,
2013-01-20 20:08:00,59.0,56.4,30.16,SE,128,1.0,5.0,91,0.00,,---,0.00,VWS V14.01,2013-01-21 02:08:00,
2013-01-20 20:13:00,58.9,56.3,30.15,ESE,105,3.0,5.0,91,0.00,,---,0.00,VWS V14.01,2013-01-21 02:13:00,
2013-01-20 20:18:00,58.8,56.2,30.15,ESE,123,2.0,5.0,91,0.00,,---,0.00,VWS V14.01,2013-01-21 02:18:00,
2013-01-20 20:23:00,58.9,56.3,30.15,ESE,119,3.0,5.0,91,0.00,,---,0.00,VWS V14.01,2013-01-21 02:23:00,
2013-01-20 20:28:00,58.9,56.3,30.15,ESE,115,3.0,5.0,91,0.00,,---,0.00,VWS V14.01,2013-01-21 02:28:00,
2013-01-20 20:33:00,58.9,56.3,30.15,ESE,108,3.0,5.0,91,0.00,,---,0.00,VWS V14.01,2013-01-21 02:33:00,
2013-01-20 20:38:00,58.8,56.2,30.15,East,101,2.0,5.0,91,0.00,,---,0.00,VWS V14.01,2013-01-21 02:38:00,
2013-01-20 20:43:00,58.8,56.2,30.15,ESE,108,1.0,5.0,91,0.00,,---,0.00,VWS V14.01,2013-01-21 02:43:00,
2013-01-20 20:48:00,58.9,56.3,30.16,ESE,112,1.0,5.0,91,0.00,,---,0.00,VWS V14.01,2013-01-21 02:48:00,
2013-01-20 20:53:00,58.9,56.3,30.15,ESE,104,3.0,5.0,91,0.00,,---,0.00,VWS V14.01,2013-01-21 02:53:00,
2013-01-20 20:58:00,58.9,56.3,30.16,East,93,2.0,5.0,91,0.00,,---,0.00,VWS V14.01,2013-01-21 02:58:00,
2013-01-20 21:03:00,58.9,56.3,30.16,ESE,108,2.0,3.0,91,0.00,,---,0.00,VWS V14.01,2013-01-21 03:03:00,
2013-01-20 21:08:00,58.8,56.2,30.15,ESE,118,2.0,3.0,91,0.00,,---,0.00,VWS V14.01,2013-01-21 03:08:00,
2013-01-20 21:14:00,58.8,56.2,30.15,ESE,109,2.0,4.0,91,0.00,,---,0.00,VWS V14.01,2013-01-21 03:14:00,
2013-01-20 21:19:00,58.7,56.1,30.16,ESE,103,2.0,4.0,91,0.00,,---,0.00,VWS V14.01,2013-01-21 03:19:00,
2013-01-20 21:24:00,58.6,56.0,30.16,ESE,121,2.0,4.0,91,0.00,,---,0.00,VWS V14.01,2013-01-21 03:24:00,
2013-01-20 21:28:00,58.6,56.0,30.16,ESE,112,2.0,4.0,91,0.00,,---,0.00,VWS V14.01,2013-01-21 03:28:00,
2013-01-20 21:33:00,58.6,56.0,30.16,ESE,122,2.0,4.0,91,0.00,,---,0.00,VWS V14.01,2013-01-21 03:33:00,
2013-01-20 21:38:00,58.6,56.0,30.16,ESE,105,2.0,4.0,91,0.00,,---,0.00,VWS V14.01,2013-01-21 03:38:00,
2013-01-20 21:43:00,58.7,55.8,30.16,ESE,110,3.0,4.0,90,0.00,,---,0.00,VWS V14.01,2013-01-21 03:43:00,
2013-01-20 21:48:00,58.7,55.8,30.16,ESE,103,3.0,4.0,90,0.00,,---,0.00,VWS V14.01,2013-01-21 03:48:00,
2013-01-20 21:53:00,58.7,55.8,30.16,ESE,117,3.0,5.0,90,0.00,,---,0.00,VWS V14.01,2013-01-21 03:53:00,
2013-01-20 21:58:00,58.8,55.6,30.16,East,89,2.0,5.0,89,0.00,,---,0.00,VWS V14.01,2013-01-21 03:58:00,
2013-01-20 22:03:00,58.8,55.6,30.16,ESE,105,3.0,4.0,89,0.00,,---,0.00,VWS V14.01,2013-01-21 04:03:00,
2013-01-20 22:08:00,58.8,55.9,30.16,East,99,3.0,4.0,90,0.00,,---,0.00,VWS V14.01,2013-01-21 04:08:00,
2013-01-20 22:14:00,58.8,55.9,30.16,ESE,104,2.0,4.0,90,0.00,,---,0.00,VWS V14.01,2013-01-21 04:14:00,
2013-01-20 22:19:00,58.6,55.4,30.16,ENE,58,2.0,4.0,89,0.00,,---,0.00,VWS V14.01,2013-01-21 04:19:00,
2013-01-20 22:24:00,58.4,55.5,30.16,ESE,102,1.0,4.0,90,0.00,,---,0.00,VWS V14.01,2013-01-21 04:24:00,
2013-01-20 22:29:00,58.3,55.4,30.16,ESE,102,2.0,4.0,90,0.00,,---,0.00,VWS V14.01,2013-01-21 04:29:00,
2013-01-20 22:34:00,58.4,55.5,30.16,ESE,115,4.0,4.0,90,0.00,,---,0.00,VWS V14.01,2013-01-21 04:34:00,
2013-01-20 22:39:00,58.5,55.6,30.16,ESE,110,3.0,5.0,90,0.00,,---,0.00,VWS V14.01,2013-01-21 04:39:00,
2013-01-20 22:44:00,58.5,55.6,30.16,East,88,2.0,5.0,90,0.00,,---,0.00,VWS V14.01,2013-01-21 04:44:00,
2013-01-20 22:49:00,58.6,55.7,30.16,ESE,108,1.0,5.0,90,0.00,,---,0.00,VWS V14.01,2013-01-21 04:49:00,
2013-01-20 22:54:00,58.6,55.7,30.16,East,98,4.0,6.0,90,0.00,,---,0.00,VWS V14.01,2013-01-21 04:54:00,
2013-01-20 22:59:00,58.6,56.0,30.16,East,96,4.0,6.0,91,0.00,,---,0.00,VWS V14.01,2013-01-21 04:59:00,
2013-01-20 23:00:00,58.6,56.0,30.16,ESE,117,3.0,6.0,91,0.00,,---,0.00,VWS V14.01,2013-01-21 05:00:00,
2013-01-20 23:02:00,58.6,56.0,30.16,East,88,3.0,6.0,91,0.00,,---,0.00,VWS V14.01,2013-01-21 05:02:00,
2013-01-20 23:03:00,58.6,56.0,30.16,East,98,2.0,3.0,91,0.00,,---,0.00,VWS V14.01,2013-01-21 05:03:00,
2013-01-20 23:04:00,58.6,56.0,30.16,ESE,103,4.0,4.0,91,0.00,,---,0.00,VWS V14.01,2013-01-21 05:04:00,
2013-01-20 23:09:00,58.5,55.9,30.16,East,82,2.0,4.0,91,0.00,,---,0.00,VWS V14.01,2013-01-21 05:09:00,
2013-01-20 23:14:00,58.4,55.8,30.16,East,89,2.0,5.0,91,0.00,,---,0.00,VWS V14.01,2013-01-21 05:14:00,
2013-01-20 23:19:00,58.5,55.9,30.16,ESE,105,4.0,5.0,91,0.00,,---,0.00,VWS V14.01,2013-01-21 05:19:00,
2013-01-20 23:24:00,58.4,55.8,30.16,ESE,108,2.0,5.0,91,0.00,,---,0.00,VWS V14.01,2013-01-21 05:24:00,
2013-01-20 23:29:00,58.3,55.7,30.16,East,91,4.0,5.0,91,0.00,,---,0.00,VWS V14.01,2013-01-21 05:29:00,
2013-01-20 23:34:00,58.3,55.7,30.15,East,93,1.0,5.0,91,0.00,,---,0.00,VWS V14.01,2013-01-21 05:34:00,
2013-01-20 23:39:00,58.4,55.8,30.16,SE,132,2.0,6.0,91,0.00,,---,0.00,VWS V14.01,2013-01-21 05:39:00,
2013-01-20 23:44:00,58.4,55.8,30.15,ESE,105,2.0,6.0,91,0.00,,---,0.00,VWS V14.01,2013-01-21 05:44:00,
2013-01-20 23:49:00,58.4,55.8,30.15,ESE,110,2.0,6.0,91,0.00,,---,0.00,VWS V14.01,2013-01-21 05:49:00,
2013-01-20 23:54:00,58.4,55.8,30.15,ENE,77,2.0,6.0,91,0.00,,---,0.00,VWS V14.01,2013-01-21 05:54:00,
2013-01-20 23:59:00,58.3,55.7,30.15,East,93,3.0,6.0,91,0.00,,---,0.00,VWS V14.01,2013-01-21 05:59:00,